Time;durP1;ratioP1;P1;durP2;ratioP2;P2;SDS_P1;SDS_P2;PMS_P1;PMS_P2;Temp;Humidity;BMP_temperature;BMP_pressure;BME280_temperature;BME280_humidity;BME280_pressure;Samples;Min_cycle;Max_cycle;Signal;HPM_P1;HPM_P2
2022/07/31 00:00:26;;;;;;;16.60;7.50;;;;;;;21.67;63.21;101638.97;5093326;28;20059;-51
2022/07/31 00:02:54;;;;;;;13.20;7.25;;;;;;;21.65;63.36;101637.66;5093972;28;20051;-49
2022/07/31 00:05:22;;;;;;;11.38;7.85;;;;;;;21.62;63.66;101627.19;5081176;28;20041;-51
2022/07/31 00:07:51;;;;;;;12.63;5.85;;;;;;;21.61;63.59;101625.59;5095986;28;20047;-52
2022/07/31 00:10:19;;;;;;;12.95;6.65;;;;;;;21.58;63.88;101627.03;5095095;28;20495;-54
2022/07/31 00:12:47;;;;;;;13.00;7.65;;;;;;;21.54;64.25;101620.50;5083374;28;20051;-50
2022/07/31 00:15:14;;;;;;;10.52;6.38;;;;;;;21.55;64.22;101616.59;5087843;28;20046;-51
2022/07/31 00:17:44;;;;;;;12.38;7.45;;;;;;;21.55;64.29;101615.75;5091909;28;20040;-53
2022/07/31 00:20:13;;;;;;;14.38;6.95;;;;;;;21.53;64.46;101613.34;5094777;28;20040;-53
2022/07/31 00:22:42;;;;;;;15.43;7.10;;;;;;;21.54;64.43;101620.50;5094757;28;20048;-51
2022/07/31 00:25:10;;;;;;;14.43;7.05;;;;;;;21.55;64.27;101611.06;5087726;28;20040;-54
2022/07/31 00:27:39;;;;;;;12.93;6.38;;;;;;;21.52;64.57;101611.69;5092526;28;20040;-52
2022/07/31 00:30:08;;;;;;;12.80;6.25;;;;;;;21.52;64.46;101613.66;5092034;28;20044;-50
2022/07/31 00:32:35;;;;;;;10.65;6.53;;;;;;;21.49;64.79;101607.59;5086833;28;20047;-49
2022/07/31 00:35:04;;;;;;;11.95;7.65;;;;;;;21.45;64.99;101606.63;5094147;28;20036;-54
2022/07/31 00:37:34;;;;;;;12.32;7.75;;;;;;;21.39;65.58;101595.97;5090136;28;20048;-52
2022/07/31 00:40:03;;;;;;;11.43;7.05;;;;;;;21.32;65.67;101595.63;5094400;28;20051;-50
2022/07/31 00:42:31;;;;;;;13.88;7.43;;;;;;;21.30;65.94;101592.38;5086580;28;20036;-52
2022/07/31 00:44:59;;;;;;;12.52;7.18;;;;;;;21.26;66.05;101587.47;5094057;28;20032;-52
2022/07/31 00:47:27;;;;;;;12.88;7.60;;;;;;;21.25;66.18;101596.91;5072394;28;20514;-53
2022/07/31 00:49:56;;;;;;;11.60;6.88;;;;;;;21.24;66.16;101595.28;5088446;28;20048;-52
2022/07/31 00:52:24;;;;;;;12.32;7.28;;;;;;;21.23;66.26;101596.41;5093011;28;20090;-53
2022/07/31 00:54:52;;;;;;;12.30;7.22;;;;;;;21.23;66.30;101599.19;5093908;28;20043;-53
2022/07/31 00:57:19;;;;;;;10.88;6.43;;;;;;;21.24;66.45;101589.75;5093541;28;20039;-53
2022/07/31 00:59:47;;;;;;;14.75;7.35;;;;;;;21.25;66.36;101591.38;5093190;28;20056;-49
2022/07/31 01:02:14;;;;;;;13.90;7.38;;;;;;;21.22;66.50;101586.47;5087203;28;20121;-53
2022/07/31 01:04:42;;;;;;;11.57;6.70;;;;;;;21.24;66.57;101586.16;5084877;28;20143;-50
2022/07/31 01:07:12;;;;;;;15.13;6.85;;;;;;;21.26;66.49;101576.38;5090866;28;20047;-51
2022/07/31 01:09:39;;;;;;;11.23;7.18;;;;;;;21.29;66.37;101569.38;5092191;28;20040;-54
2022/07/31 01:12:15;;;;;;;12.32;6.93;;;;;;;21.30;66.58;101572.97;5075603;28;20388;-52
2022/07/31 01:14:52;;;;;;;10.27;6.60;;;;;;;21.31;66.59;101572.66;5083514;28;20045;-49
2022/07/31 01:17:21;;;;;;;11.70;7.10;;;;;;;21.28;66.42;101568.53;5093456;28;20055;-49
2022/07/31 01:19:50;;;;;;;11.73;7.38;;;;;;;21.28;66.58;101574.09;5084441;28;20043;-51
2022/07/31 01:22:44;;;;;;;10.98;6.78;;;;;;;21.27;66.70;101569.69;5076445;28;20055;-51
2022/07/31 01:25:23;;;;;;;12.43;7.03;;;;;;;21.28;66.59;101567.72;5094828;28;20092;-55
2022/07/31 01:28:04;;;;;;;10.80;7.25;;;;;;;21.27;66.76;101569.69;5076996;28;20040;-52
2022/07/31 01:30:44;;;;;;;13.63;7.43;;;;;;;21.28;66.81;101568.53;5092411;28;20106;-52
2022/07/31 01:33:17;;;;;;;13.00;7.63;;;;;;;21.27;66.99;101566.94;5073069;28;20090;-50
2022/07/31 01:35:49;;;;;;;12.93;7.68;;;;;;;21.27;67.16;101568.88;5068441;28;20122;-50
2022/07/31 01:38:27;;;;;;;15.00;8.13;;;;;;;21.25;67.19;101569.19;5072717;28;20040;-54
2022/07/31 01:40:58;;;;;;;10.85;7.28;;;;;;;21.23;67.37;101565.94;5074232;28;20064;-53
2022/07/31 01:43:33;;;;;;;12.98;8.05;;;;;;;21.20;67.10;101566.56;5076686;28;20039;-52
2022/07/31 01:46:03;;;;;;;12.50;6.63;;;;;;;21.19;67.05;101562.19;5085693;28;20040;-53
2022/07/31 01:48:35;;;;;;;11.38;6.03;;;;;;;21.21;66.88;101561.84;5083330;28;20043;-53
2022/07/31 01:51:03;;;;;;;11.90;6.95;;;;;;;21.20;66.97;101563.81;5093006;28;20040;-52
2022/07/31 01:53:31;;;;;;;13.20;8.02;;;;;;;21.20;67.01;101563.00;5072332;28;20479;-51
2022/07/31 01:55:59;;;;;;;14.82;8.70;;;;;;;21.18;67.08;101563.31;5093099;28;20455;-48
2022/07/31 01:58:35;;;;;;;11.93;8.80;;;;;;;21.15;67.29;101552.88;5064761;28;20458;-51
2022/07/31 02:01:08;;;;;;;14.23;8.90;;;;;;;21.12;67.54;101563.78;5091648;28;20541;-51
2022/07/31 02:03:40;;;;;;;13.85;8.80;;;;;;;21.06;67.90;101565.88;5086636;28;20043;-50
2022/07/31 02:06:15;;;;;;;13.68;9.50;;;;;;;20.98;68.16;101575.81;5075341;28;20407;-52
2022/07/31 02:08:48;;;;;;;16.85;8.60;;;;;;;20.96;68.36;101575.31;5071144;28;20119;-54
2022/07/31 02:11:18;;;;;;;16.95;9.07;;;;;;;20.93;68.69;101578.72;5075637;28;20044;-54
2022/07/31 02:13:48;;;;;;;15.70;9.05;;;;;;;20.89;68.74;101577.72;5092531;28;20042;-53
2022/07/31 02:16:17;;;;;;;15.30;8.38;;;;;;;20.87;68.92;101577.22;5072030;28;20044;-51
2022/07/31 02:18:48;;;;;;;15.40;9.02;;;;;;;20.85;68.64;101577.56;5093758;28;20044;-51
2022/07/31 02:21:24;;;;;;;16.27;8.85;;;;;;;20.82;68.73;101572.63;5080121;28;20089;-53
2022/07/31 02:23:53;;;;;;;12.20;8.27;;;;;;;20.79;68.75;101570.50;5087573;28;20589;-51
2022/07/31 02:26:21;;;;;;;14.40;8.45;;;;;;;20.75;68.70;101563.97;5098180;28;20043;-49
2022/07/31 02:28:51;;;;;;;13.93;8.35;;;;;;;20.74;68.37;101565.13;5081831;28;20040;-51
2022/07/31 02:31:21;;;;;;;15.25;8.23;;;;;;;20.74;68.39;101558.75;5091340;28;20399;-49
2022/07/31 02:33:50;;;;;;;14.52;7.70;;;;;;;20.74;68.21;101565.13;5076180;28;20043;-48
2022/07/31 02:36:20;;;;;;;14.10;7.95;;;;;;;20.73;68.05;101560.69;5075034;28;20159;-48
2022/07/31 02:38:49;;;;;;;12.10;7.65;;;;;;;20.73;67.87;101559.88;5092767;28;20044;-55
2022/07/31 02:41:17;;;;;;;19.63;8.25;;;;;;;20.72;68.05;101564.63;5092281;28;20502;-49
2022/07/31 02:43:45;;;;;;;12.40;8.02;;;;;;;20.70;67.91;101564.09;5069760;28;20146;-54
2022/07/31 02:46:19;;;;;;;11.52;7.90;;;;;;;20.67;67.93;101575.84;5072607;28;20054;-49
2022/07/31 02:48:48;;;;;;;14.10;7.65;;;;;;;20.66;68.07;101574.22;5073401;28;20059;-48
2022/07/31 02:51:17;;;;;;;12.32;7.88;;;;;;;20.65;68.31;101567.03;5089004;28;20044;-49
2022/07/31 02:53:46;;;;;;;12.35;7.07;;;;;;;20.66;68.67;101562.28;5103561;28;20078;-54
2022/07/31 02:56:15;;;;;;;9.75;6.38;;;;;;;20.67;68.80;101575.03;5083496;28;20064;-52
2022/07/31 02:58:43;;;;;;;12.85;6.57;;;;;;;20.67;68.79;101564.75;5081032;28;20046;-56
2022/07/31 03:01:34;;;;;;;11.10;6.88;;;;;;;20.69;68.55;101562.50;5093420;28;20131;-51
2022/07/31 03:04:02;;;;;;;9.85;6.60;;;;;;;20.68;68.45;101552.53;5092169;28;20043;-55
2022/07/31 03:06:29;;;;;;;13.80;6.78;;;;;;;20.68;68.50;101555.28;5091692;28;20126;-55
2022/07/31 03:08:58;;;;;;;11.43;6.75;;;;;;;20.68;68.33;101555.28;5088925;28;20120;-53
2022/07/31 03:11:27;;;;;;;11.98;6.28;;;;;;;20.67;68.15;101552.88;5091726;28;20422;-52
2022/07/31 03:13:55;;;;;;;11.20;6.10;;;;;;;20.66;67.73;101551.22;5069101;28;20128;-53
2022/07/31 03:16:23;;;;;;;10.23;5.90;;;;;;;20.64;67.61;101554.31;5064786;28;20040;-54
2022/07/31 03:18:52;;;;;;;8.55;5.30;;;;;;;20.63;67.49;101549.91;5086446;28;20036;-50
2022/07/31 03:21:22;;;;;;;10.68;5.63;;;;;;;20.64;67.48;101543.25;5096597;28;20483;-51
2022/07/31 03:23:50;;;;;;;9.95;4.70;;;;;;;20.64;67.31;101537.72;5071037;28;20040;-50
2022/07/31 03:26:21;;;;;;;11.77;5.47;;;;;;;20.64;67.17;101537.72;5076248;28;20433;-49
2022/07/31 03:28:49;;;;;;;10.88;5.55;;;;;;;20.62;66.80;101534.44;5088082;28;20053;-50
2022/07/31 03:31:16;;;;;;;11.70;5.82;;;;;;;20.60;66.64;101536.72;5096785;28;20040;-51
2022/07/31 03:33:44;;;;;;;9.15;5.50;;;;;;;20.57;66.69;101532.63;5087538;28;20040;-49
2022/07/31 03:36:14;;;;;;;16.95;4.80;;;;;;;;;;5095796;28;20032;-50
2022/07/31 03:38:42;;;;;;;11.13;5.82;;;;;;;20.56;67.18;101538.47;5090301;28;20079;-55
2022/07/31 03:41:24;;;;;;;13.02;6.18;;;;;;;20.56;67.20;101532.94;5091696;28;20524;-51
2022/07/31 03:43:52;;;;;;;10.70;5.50;;;;;;;20.57;67.42;101540.13;5095018;28;20074;-50
2022/07/31 03:46:21;;;;;;;8.68;5.15;;;;;;;20.58;67.49;101538.97;5079631;28;20394;-50
2022/07/31 03:48:50;;;;;;;12.27;5.57;;;;;;;20.58;67.38;101542.53;5102310;28;20044;-51
2022/07/31 03:51:20;;;;;;;11.73;5.25;;;;;;;20.58;67.77;101548.09;5093288;28;20122;-53
2022/07/31 03:53:48;;;;;;;9.85;4.72;;;;;;;20.60;67.66;101536.72;5090694;28;20051;-49
2022/07/31 03:56:38;;;;;;;15.38;5.60;;;;;;;20.60;67.72;101533.94;5094395;28;20044;-51
2022/07/31 03:59:06;;;;;;;10.23;5.63;;;;;;;20.59;68.18;101524.00;5060480;28;20480;-51
2022/07/31 04:01:34;;;;;;;13.27;5.45;;;;;;;20.59;68.36;101526.78;5085854;28;20063;-51
2022/07/31 04:04:36;;;;;;;10.00;4.95;;;;;;;20.58;68.51;101537.00;5083638;28;20039;-53
2022/07/31 04:07:04;;;;;;;8.68;4.68;;;;;;;20.58;68.48;101534.25;5094055;28;20040;-51
2022/07/31 04:09:32;;;;;;;8.07;4.70;;;;;;;20.58;69.03;101533.44;5094413;28;20040;-55
2022/07/31 04:12:01;;;;;;;12.70;5.30;;;;;;;20.59;68.95;101535.91;5086884;28;20075;-51
2022/07/31 04:14:30;;;;;;;10.35;4.70;;;;;;;20.60;68.88;101548.59;5094215;28;20043;-49
2022/07/31 04:16:57;;;;;;;11.38;5.32;;;;;;;20.59;68.93;101544.19;5095398;28;20040;-48
2022/07/31 04:19:29;;;;;;;8.95;4.90;;;;;;;20.61;69.15;101546.63;5087771;28;20048;-49
2022/07/31 04:21:58;;;;;;;10.00;4.93;;;;;;;20.63;68.69;101550.72;5093863;28;20059;-52
2022/07/31 04:24:26;;;;;;;12.65;5.85;;;;;;;20.64;68.70;101548.78;5073234;28;20032;-52
2022/07/31 04:27:18;;;;;;;11.30;5.32;;;;;;;20.60;68.82;101542.25;5106976;28;20040;-54
2022/07/31 04:29:48;;;;;;;7.82;5.18;;;;;;;20.55;69.41;101551.50;5088876;28;20548;-52
2022/07/31 04:32:15;;;;;;;10.90;5.32;;;;;;;20.56;69.45;101546.78;5094210;28;20050;-52
2022/07/31 04:35:05;;;;;;;10.60;4.80;;;;;;;20.55;69.36;101550.66;5095141;28;20571;-50
2022/07/31 04:37:32;;;;;;;9.70;5.90;;;;;;;20.54;69.72;101544.31;5092023;28;20052;-55
2022/07/31 04:40:00;;;;;;;9.43;5.28;;;;;;;20.52;69.85;101535.50;5084388;28;20548;-56
2022/07/31 04:42:29;;;;;;;10.90;6.50;;;;;;;20.54;69.68;101549.00;5091101;28;20048;-54
2022/07/31 04:44:59;;;;;;;9.57;5.20;;;;;;;20.52;69.70;101551.31;5069409;28;20035;-53
2022/07/31 04:47:27;;;;;;;13.68;5.50;;;;;;;20.52;69.85;101554.06;5093054;28;20068;-53
2022/07/31 04:49:56;;;;;;;10.73;6.25;;;;;;;20.50;70.17;101554.38;5086943;28;20040;-55
2022/07/31 04:52:26;;;;;;;11.43;5.82;;;;;;;20.52;69.73;101557.66;5093975;28;20040;-53
2022/07/31 04:54:56;;;;;;;10.75;5.63;;;;;;;20.52;69.66;101551.31;5079154;28;20167;-55
2022/07/31 04:57:24;;;;;;;8.02;5.03;;;;;;;20.53;69.34;101552.94;5086271;28;20404;-54
2022/07/31 04:59:51;;;;;;;13.65;7.38;;;;;;;20.53;69.81;101547.38;5075800;28;20505;-52
2022/07/31 05:02:30;;;;;;;10.45;6.55;;;;;;;20.51;69.93;101549.66;5075075;28;20041;-55
2022/07/31 05:04:57;;;;;;;9.95;4.80;;;;;;;20.53;69.10;101539.06;5093312;28;20047;-54
2022/07/31 05:07:35;;;;;;;11.35;6.20;;;;;;;20.54;69.56;101537.94;5087913;28;20066;-55
2022/07/31 05:10:09;;;;;;;9.70;5.97;;;;;;;20.51;69.95;101544.13;5085812;28;20132;-54
2022/07/31 05:12:37;;;;;;;11.65;6.40;;;;;;;20.52;69.78;101543.81;5091286;28;20127;-56
2022/07/31 05:15:05;;;;;;;10.70;6.40;;;;;;;20.52;69.79;101534.69;5089953;28;20040;-56
2022/07/31 05:17:33;;;;;;;9.82;6.80;;;;;;;20.48;70.54;101542.81;5086552;28;20498;-55
2022/07/31 05:20:20;;;;;;;12.15;6.28;;;;;;;20.49;70.74;101543.59;5086051;28;20082;-54
2022/07/31 05:23:16;;;;;;;8.48;5.18;;;;;;;20.51;70.60;101536.63;5082781;28;20099;-50
2022/07/31 05:25:57;;;;;;;9.80;5.38;;;;;;;20.51;71.07;101546.88;5093995;28;20068;-54
2022/07/31 05:28:25;;;;;;;11.20;6.30;;;;;;;20.50;72.17;101545.25;5087451;28;20058;-50
2022/07/31 05:30:57;;;;;;;7.90;4.72;;;;;;;20.50;71.39;101528.66;5084398;28;20028;-53
2022/07/31 05:33:27;;;;;;;12.75;6.60;;;;;;;20.46;73.17;101530.41;5065204;28;20445;-52
2022/07/31 05:35:55;;;;;;;9.43;4.50;;;;;;;20.46;71.95;101525.69;5111010;28;20039;-53
2022/07/31 05:38:24;;;;;;;11.68;6.13;;;;;;;20.46;72.81;101522.91;5069509;28;20042;-51
2022/07/31 05:41:15;;;;;;;11.73;5.85;;;;;;;20.47;72.89;101515.41;5087474;28;20532;-54
2022/07/31 05:44:03;;;;;;;7.40;4.32;;;;;;;20.48;72.35;101512.34;5093432;28;20071;-51
2022/07/31 05:46:40;;;;;;;12.90;6.35;;;;;;;20.45;74.76;101514.94;5083134;28;20069;-53
2022/07/31 05:49:08;;;;;;;8.65;5.07;;;;;;;20.43;74.02;101524.38;5089173;28;20048;-50
2022/07/31 05:51:36;;;;;;;10.57;5.90;;;;;;;20.45;74.63;101523.25;5090680;28;20039;-49
2022/07/31 05:54:23;;;;;;;11.89;5.48;;;;;;;20.42;74.26;101524.72;5040349;28;10000649;-49
2022/07/31 05:57:09;;;;;;;8.65;4.68;;;;;;;20.42;73.94;101530.25;5078332;28;20260;-49
2022/07/31 05:59:41;;;;;;;9.95;5.78;;;;;;;20.39;75.68;101520.59;5087430;28;20452;-48
2022/07/31 06:02:09;;;;;;;12.32;6.20;;;;;;;20.41;75.39;101532.16;5090218;28;20070;-50
2022/07/31 06:05:09;;;;;;;9.57;5.90;;;;;;;20.41;75.78;101532.16;5053880;28;20414;-55
2022/07/31 06:07:37;;;;;;;13.05;6.55;;;;;;;20.39;75.86;101534.44;5080699;28;20131;-53
2022/07/31 06:10:05;;;;;;;10.15;5.78;;;;;;;20.39;75.25;101534.44;5085278;28;20147;-52
2022/07/31 06:12:33;;;;;;;10.32;5.75;;;;;;;20.34;77.64;101544.84;5089003;28;20098;-54
2022/07/31 06:15:01;;;;;;;13.77;6.47;;;;;;;20.30;78.05;101550.19;5080096;28;20050;-51
2022/07/31 06:17:38;;;;;;;7.18;4.68;;;;;;;20.30;77.58;101543.81;5087036;28;20040;-54
2022/07/31 06:20:19;;;;;;;9.25;4.95;;;;;;;20.32;77.54;101547.91;5085908;28;20034;-52
2022/07/31 06:22:46;;;;;;;9.13;4.95;;;;;;;20.33;76.75;101544.03;5088743;28;20413;-54
2022/07/31 06:25:15;;;;;;;9.50;5.00;;;;;;;20.33;76.74;101541.25;5082647;28;20123;-55
2022/07/31 06:27:43;;;;;;;7.45;4.60;;;;;;;20.38;77.60;101532.81;5086366;28;20119;-52
2022/07/31 06:30:18;;;;;;;8.43;5.00;;;;;;;20.37;78.08;101533.97;5066650;28;20043;-51
2022/07/31 06:32:47;;;;;;;8.90;4.53;;;;;;;20.40;77.19;101536.09;5071470;28;20068;-50
2022/07/31 06:35:15;;;;;;;11.10;6.22;;;;;;;20.42;78.49;101535.78;5072866;28;20040;-53
2022/07/31 06:38:23;;;;;;;8.38;4.75;;;;;;;20.41;78.26;101532.16;5077769;28;20469;-56
2022/07/31 06:44:22;;;;;;;8.45;4.15;;;;;;;20.48;77.08;101526.19;5089452;28;20075;-54
2022/07/31 06:47:21;;;;;;;6.80;3.25;;;;;;;20.49;77.15;101525.03;5086094;28;20032;-51
2022/07/31 06:49:52;;;;;;;8.93;4.53;;;;;;;20.53;77.07;101520.50;5082332;28;20090;-55
2022/07/31 06:52:19;;;;;;;8.65;3.40;;;;;;;20.56;75.29;101524.63;5084105;28;20138;-52
2022/07/31 06:54:47;;;;;;;5.80;3.08;;;;;;;20.57;74.82;101521.53;5080321;28;20448;-57
2022/07/31 06:57:15;;;;;;;7.15;4.00;;;;;;;20.64;75.58;101523.88;5085362;28;20434;-57
2022/07/31 06:59:43;;;;;;;7.95;3.80;;;;;;;20.66;75.69;101520.75;5068727;28;20067;-53
2022/07/31 07:02:12;;;;;;;6.43;2.97;;;;;;;20.61;74.62;101528.09;5062938;28;20044;-54
2022/07/31 07:04:39;;;;;;;10.15;5.32;;;;;;;20.63;77.00;101536.88;5089903;28;20043;-55
2022/07/31 07:07:27;;;;;;;6.95;3.92;;;;;;;20.67;76.38;101539.84;5085234;28;20482;-56
2022/07/31 07:10:00;;;;;;;7.00;3.95;;;;;;;20.64;76.51;101532.97;5089090;28;20132;-50
2022/07/31 07:12:45;;;;;;;;;;;;;;;20.66;73.16;101529.91;5077375;28;20617;-51
2022/07/31 07:15:14;;;;;;;11.35;4.53;;;;;;;20.65;77.06;101536.56;5086160;28;19927;-54
2022/07/31 07:17:42;;;;;;;7.75;4.13;;;;;;;20.68;74.27;101527.59;5074560;28;20036;-55
2022/07/31 07:20:15;;;;;;;11.65;6.10;;;;;;;20.63;78.69;101523.03;5075208;28;20041;-52
2022/07/31 07:22:43;;;;;;;8.55;3.75;;;;;;;20.59;77.82;101524.81;5092157;28;20082;-55
2022/07/31 07:25:15;;;;;;;12.48;5.70;;;;;;;20.59;77.44;101518.47;5092822;28;20048;-58
2022/07/31 07:27:43;;;;;;;10.55;5.70;;;;;;;20.66;77.58;101524.38;5084347;28;20042;-54
2022/07/31 07:30:11;;;;;;;8.73;4.55;;;;;;;20.64;78.87;101515.56;5048058;28;20502;-50
2022/07/31 07:32:39;;;;;;;12.75;6.22;;;;;;;20.62;79.52;101523.34;5095092;28;20040;-50
2022/07/31 07:35:08;;;;;;;11.60;7.13;;;;;;;20.61;79.86;101522.56;5094283;28;20375;-50
2022/07/31 07:37:53;;;;;;;16.42;9.52;;;;;;;20.55;81.00;101522.97;5064620;28;20040;-54
2022/07/31 07:40:21;;;;;;;11.13;7.78;;;;;;;20.53;81.07;101517.75;5087965;28;20051;-52
2022/07/31 07:42:49;;;;;;;13.65;8.75;;;;;;;20.48;82.00;101517.88;5094806;28;20032;-52
2022/07/31 07:45:16;;;;;;;13.80;7.50;;;;;;;20.48;81.96;101517.88;5094941;28;20056;-50
2022/07/31 07:47:44;;;;;;;14.43;8.65;;;;;;;20.57;80.56;101516.00;5094293;28;20068;-53
2022/07/31 07:50:37;;;;;;;14.05;7.93;;;;;;;20.59;80.59;101516.50;5095312;28;20044;-52
2022/07/31 07:53:23;;;;;;;17.73;7.47;;;;;;;20.62;81.08;101503.97;5095322;28;20490;-50
2022/07/31 07:56:10;;;;;;;12.25;8.38;;;;;;;20.66;81.11;101506.91;5096057;28;20036;-51
2022/07/31 07:59:03;;;;;;;15.57;8.50;;;;;;;20.74;79.65;101508.91;5081739;28;20115;-54
2022/07/31 08:01:49;;;;;;;16.15;9.18;;;;;;;20.78;79.85;101507.97;5083815;28;20040;-51
2022/07/31 08:04:24;;;;;;;15.65;7.47;;;;;;;20.81;79.14;101507.31;5094503;28;20048;-53
2022/07/31 08:06:52;;;;;;;15.25;5.97;;;;;;;20.84;75.84;101495.56;5095450;28;20044;-53
2022/07/31 08:09:24;;;;;;;15.20;7.05;;;;;;;20.91;76.73;101508.16;5088735;28;20044;-51
2022/07/31 08:12:10;;;;;;;15.07;8.25;;;;;;;20.93;79.20;101505.88;5095094;28;20106;-55
2022/07/31 08:14:56;;;;;;;15.10;7.95;;;;;;;20.91;79.10;101503.44;5095456;28;20033;-55
2022/07/31 08:17:42;;;;;;;13.70;8.48;;;;;;;20.88;80.38;101504.06;5092351;28;20028;-53
2022/07/31 08:20:11;;;;;;;14.50;5.75;;;;;;;20.93;75.88;101498.38;5093881;28;20118;-54
2022/07/31 08:22:39;;;;;;;17.02;6.82;;;;;;;20.99;76.72;101494.31;5094726;28;20043;-51
2022/07/31 08:25:06;;;;;;;15.25;6.10;;;;;;;21.06;75.23;101493.84;5095621;28;20495;-55
2022/07/31 08:27:42;;;;;;;13.57;5.77;;;;;;;21.14;73.75;101495.00;5090380;28;20490;-53
2022/07/31 08:30:10;;;;;;;12.20;8.38;;;;;;;21.15;77.54;101491.91;5084433;28;20387;-48
2022/07/31 08:32:37;;;;;;;15.68;7.95;;;;;;;21.21;76.10;101496.16;5094038;28;20071;-54
2022/07/31 08:35:05;;;;;;;13.35;5.88;;;;;;;21.28;74.04;101490.13;5095534;28;20044;-55
2022/07/31 08:37:33;;;;;;;14.55;7.32;;;;;;;21.33;75.94;101492.72;5090258;28;20047;-52
2022/07/31 08:40:22;;;;;;;14.18;7.75;;;;;;;21.30;77.82;101492.59;5094423;28;20550;-49
2022/07/31 08:42:50;;;;;;;14.10;6.05;;;;;;;21.36;73.60;101496.81;5095172;28;20036;-53
2022/07/31 08:45:18;;;;;;;10.98;6.22;;;;;;;21.36;75.75;101492.09;5094338;28;20040;-54
2022/07/31 08:47:56;;;;;;;16.67;9.32;;;;;;;21.32;78.57;101490.31;5091739;28;20425;-50
2022/07/31 08:50:28;;;;;;;15.60;9.07;;;;;;;21.27;78.97;101497.63;5086722;28;20135;-53
2022/07/31 08:52:58;;;;;;;13.07;8.27;;;;;;;21.25;79.91;101505.44;5097082;28;20032;-51
2022/07/31 08:55:47;;;;;;;14.55;9.32;;;;;;;21.26;79.79;101495.16;5089015;28;20052;-52
2022/07/31 08:58:28;;;;;;;12.57;6.63;;;;;;;21.26;77.13;101490.47;5094389;28;20479;-50
2022/07/31 09:00:56;;;;;;;12.93;7.28;;;;;;;21.31;76.73;101491.44;5089728;28;20390;-49
2022/07/31 09:03:24;;;;;;;11.68;6.90;;;;;;;21.32;75.19;101496.66;5095086;28;20040;-50
2022/07/31 09:05:56;;;;;;;13.48;8.50;;;;;;;21.33;78.63;101497.47;5093960;28;20497;-56
2022/07/31 09:08:24;;;;;;;11.18;6.22;;;;;;;21.34;75.45;101494.38;5094836;28;20062;-54
2022/07/31 09:11:03;;;;;;;13.18;7.70;;;;;;;21.34;77.77;101505.47;5077122;28;20056;-55
2022/07/31 09:13:37;;;;;;;11.40;7.20;;;;;;;21.33;78.43;101505.78;5089169;28;20048;-55
2022/07/31 09:16:24;;;;;;;14.05;8.18;;;;;;;21.31;80.20;101502.50;5089554;28;20036;-55
2022/07/31 09:19:03;;;;;;;11.38;5.70;;;;;;;21.27;76.64;101500.41;5093533;28;20119;-54
2022/07/31 09:21:53;;;;;;;9.48;5.30;;;;;;;21.35;76.49;101490.47;5079867;28;20391;-53
2022/07/31 09:24:31;;;;;;;11.25;5.13;;;;;;;21.40;73.38;101487.56;5094471;28;20120;-55
2022/07/31 09:27:08;;;;;;;12.52;8.13;;;;;;;21.48;77.15;101491.50;5074141;28;20051;-52
2022/07/31 09:29:43;;;;;;;15.40;8.02;;;;;;;21.51;78.52;101485.28;5093534;28;20050;-52
2022/07/31 09:32:24;;;;;;;9.48;5.85;;;;;;;21.54;76.59;101489.38;5092435;28;20063;-54
2022/07/31 09:35:15;;;;;;;11.32;5.72;;;;;;;21.57;75.69;101488.69;5093885;28;20040;-56
2022/07/31 09:37:46;;;;;;;11.73;6.68;;;;;;;21.58;77.85;101488.38;5096354;28;20044;-56
2022/07/31 09:40:36;;;;;;;8.00;5.13;;;;;;;21.58;75.17;101482.84;5093792;28;20393;-57
2022/07/31 09:44:01;;;;;;;10.82;6.35;;;;;;;21.65;76.23;101482.34;5080615;28;20056;-53
2022/07/31 09:46:41;;;;;;;11.00;8.40;;;;;;;21.65;79.34;101483.16;5072802;28;20131;-55
2022/07/31 09:49:09;;;;;;;10.43;6.85;;;;;;;21.62;82.31;101489.38;5086216;28;20069;-56
2022/07/31 09:51:40;;;;;;;11.65;6.30;;;;;;;21.61;82.23;101489.69;5076281;28;20123;-55
2022/07/31 09:54:24;;;;;;;13.18;7.38;;;;;;;21.62;78.55;101482.97;5076462;28;20543;-56
2022/07/31 09:56:55;;;;;;;12.35;7.50;;;;;;;21.67;79.85;101486.44;5077413;28;20094;-56
2022/07/31 09:59:25;;;;;;;8.00;4.95;;;;;;;21.70;79.16;101485.75;5089459;28;20136;-57
2022/07/31 10:01:54;;;;;;;12.23;7.60;;;;;;;21.74;81.64;101479.56;5092255;28;20046;-55
2022/07/31 10:04:22;;;;;;;10.77;7.20;;;;;;;21.75;83.51;101478.44;5072712;28;20071;-55
2022/07/31 10:06:51;;;;;;;10.77;6.25;;;;;;;21.74;81.46;101480.38;5068185;28;20111;-54
2022/07/31 10:09:20;;;;;;;14.15;8.18;;;;;;;21.76;84.27;101485.59;5093756;28;20054;-55
2022/07/31 10:12:16;;;;;;;12.68;8.68;;;;;;;21.75;83.50;101478.44;5079340;28;20050;-51
2022/07/31 10:14:46;;;;;;;7.05;4.47;;;;;;;21.78;78.17;101480.53;5087634;28;20079;-52
2022/07/31 10:17:22;;;;;;;12.52;7.80;;;;;;;21.87;80.46;101482.16;5090426;28;20043;-51
2022/07/31 10:20:22;;;;;;;8.30;5.13;;;;;;;21.88;76.41;101486.56;5058262;28;20441;-52
2022/07/31 10:23:15;;;;;;;11.27;6.32;;;;;;;21.85;77.73;101491.94;5077031;28;20113;-56
2022/07/31 10:25:53;;;;;;;10.30;6.15;;;;;;;21.86;78.56;101479.69;5071859;28;20037;-54
2022/07/31 10:28:22;;;;;;;10.45;5.45;;;;;;;21.83;79.95;101470.06;5064507;28;20506;-54
2022/07/31 10:30:50;;;;;;;10.15;5.90;;;;;;;21.86;79.35;101474.16;5068568;28;20074;-52
2022/07/31 10:33:19;;;;;;;10.23;7.18;;;;;;;21.89;81.55;101471.53;5088663;28;20032;-55
2022/07/31 10:36:28;;;;;;;11.68;7.28;;;;;;;21.96;81.61;101470.22;5081768;28;20046;-54
2022/07/31 10:39:34;;;;;;;10.82;6.10;;;;;;;21.97;81.15;101467.13;5075469;28;20028;-53
2022/07/31 10:42:35;;;;;;;14.15;7.10;;;;;;;22.01;81.03;101464.50;5083182;28;20115;-52
2022/07/31 10:45:09;;;;;;;7.22;4.60;;;;;;;22.04;76.75;101464.66;5085994;28;20048;-54
2022/07/31 10:48:02;;;;;;;10.68;4.95;;;;;;;22.13;76.88;101450.75;5079351;28;20114;-55
2022/07/31 10:51:11;;;;;;;7.72;4.22;;;;;;;22.19;74.31;101456.94;5090080;28;20055;-54
2022/07/31 10:54:04;;;;;;;9.52;4.88;;;;;;;22.25;76.09;101455.66;5087789;28;20047;-51
2022/07/31 10:56:51;;;;;;;9.48;6.00;;;;;;;22.26;78.77;101446.16;5080968;28;20039;-51
2022/07/31 10:59:37;;;;;;;10.07;5.38;;;;;;;22.24;79.41;101454.81;5091433;28;20111;-55
2022/07/31 11:02:13;;;;;;;11.02;5.70;;;;;;;22.22;79.13;101451.56;5088149;28;20040;-56
2022/07/31 11:05:09;;;;;;;10.80;5.78;;;;;;;22.21;79.88;101447.16;5058258;28;20450;-55
2022/07/31 11:08:01;;;;;;;11.73;6.07;;;;;;;22.19;78.73;101454.16;5057730;28;20399;-53
2022/07/31 11:10:54;;;;;;;9.25;4.70;;;;;;;22.19;78.20;101445.84;5089263;28;20402;-52
2022/07/31 11:13:59;;;;;;;7.28;4.68;;;;;;;22.18;78.34;101439.47;5086196;28;20119;-54
2022/07/31 11:16:54;;;;;;;8.55;4.90;;;;;;;22.18;78.77;101433.13;5090080;28;20460;-51
2022/07/31 11:20:00;;;;;;;9.73;4.05;;;;;;;22.21;79.17;101440.81;5076303;28;20042;-55
2022/07/31 11:22:28;;;;;;;10.50;4.60;;;;;;;22.30;77.31;101424.94;5091989;28;20040;-54
2022/07/31 11:24:59;;;;;;;6.82;4.60;;;;;;;22.38;77.28;101434.38;5092705;28;20044;-55
2022/07/31 11:27:31;;;;;;;7.55;3.72;;;;;;;22.42;78.77;101433.38;5095713;28;20503;-58
2022/07/31 11:30:09;;;;;;;7.68;3.67;;;;;;;22.44;77.51;101436.63;5091929;28;20052;-55
2022/07/31 11:32:48;;;;;;;8.27;4.18;;;;;;;22.44;78.19;101424.69;5089108;28;20082;-57
2022/07/31 11:35:29;;;;;;;9.52;4.60;;;;;;;22.44;78.21;101425.53;5092677;28;20032;-58
2022/07/31 11:37:58;;;;;;;8.05;4.43;;;;;;;22.44;78.43;101425.53;5091381;28;20119;-54
2022/07/31 11:40:26;;;;;;;12.40;5.15;;;;;;;22.43;77.86;101418.31;5091909;28;20071;-52
2022/07/31 11:42:56;;;;;;;7.70;3.95;;;;;;;22.42;77.57;101416.72;5092903;28;20478;-53
2022/07/31 11:45:48;;;;;;;6.25;3.97;;;;;;;22.42;77.40;101415.91;5080603;28;20102;-56
2022/07/31 11:48:17;;;;;;;7.45;3.95;;;;;;;22.41;76.85;101414.25;5091121;28;20482;-53
2022/07/31 11:50:48;;;;;;;7.13;4.03;;;;;;;22.42;77.36;101410.34;5095127;28;20059;-54
2022/07/31 11:53:16;;;;;;;7.38;3.92;;;;;;;22.44;75.92;101403.31;5095151;28;20043;-55
2022/07/31 11:55:52;;;;;;;8.05;4.70;;;;;;;22.49;77.62;101411.44;5095399;28;20036;-54